sensor_id;sensor_type;location;lat;lon;timestamp;pressure;altitude;pressure_sealevel;temperature;humidity
1726;BME280;41776;48.260;8.928;2022-11-03T00:00:35;52487.97;;;-145.69;100.00
1726;BME280;41776;48.260;8.928;2022-11-03T00:03:01;52511.72;;;-145.69;100.00
1726;BME280;41776;48.260;8.928;2022-11-03T00:05:29;52521.63;;;-145.69;100.00
1726;BME280;41776;48.260;8.928;2022-11-03T00:08:16;52484.00;;;-145.69;100.00
1726;BME280;41776;48.260;8.928;2022-11-03T00:10:44;52517.66;;;-145.69;100.00
1726;BME280;41776;48.260;8.928;2022-11-03T00:13:14;52505.78;;;-145.69;100.00
1726;BME280;41776;48.260;8.928;2022-11-03T00:15:47;52511.72;;;-145.69;100.00
1726;BME280;41776;48.260;8.928;2022-11-03T00:18:14;52517.66;;;-145.69;100.00
1726;BME280;41776;48.260;8.928;2022-11-03T00:20:42;52511.72;;;-145.69;100.00
1726;BME280;41776;48.260;8.928;2022-11-03T00:23:08;52507.75;;;-145.69;100.00
1726;BME280;41776;48.260;8.928;2022-11-03T00:25:35;52507.75;;;-145.69;100.00
1726;BME280;41776;48.260;8.928;2022-11-03T00:28:02;52513.69;;;-145.69;100.00
1726;BME280;41776;48.260;8.928;2022-11-03T00:30:31;52511.72;;;-145.69;100.00
1726;BME280;41776;48.260;8.928;2022-11-03T00:33:01;52527.56;;;-145.69;100.00
1726;BME280;41776;48.260;8.928;2022-11-03T00:35:27;52507.75;;;-145.69;100.00
1726;BME280;41776;48.260;8.928;2022-11-03T00:37:55;52537.47;;;-145.69;100.00
1726;BME280;41776;48.260;8.928;2022-11-03T00:40:21;52533.50;;;-145.69;100.00
1726;BME280;41776;48.260;8.928;2022-11-03T00:42:48;52509.75;;;-145.69;100.00
1726;BME280;41776;48.260;8.928;2022-11-03T00:45:15;52497.84;;;-145.69;100.00
1726;BME280;41776;48.260;8.928;2022-11-03T00:47:41;52495.88;;;-145.69;100.00
1726;BME280;41776;48.260;8.928;2022-11-03T00:50:28;52525.59;;;-145.69;100.00
1726;BME280;41776;48.260;8.928;2022-11-03T00:52:56;52499.84;;;-145.69;100.00
1726;BME280;41776;48.260;8.928;2022-11-03T00:55:22;52529.53;;;-145.69;100.00
1726;BME280;41776;48.260;8.928;2022-11-03T00:57:51;52519.63;;;-145.69;100.00
1726;BME280;41776;48.260;8.928;2022-11-03T01:00:18;52541.44;;;-145.69;100.00
1726;BME280;41776;48.260;8.928;2022-11-03T01:02:47;52535.47;;;-145.69;100.00
1726;BME280;41776;48.260;8.928;2022-11-03T01:05:13;52529.53;;;-145.69;100.00
1726;BME280;41776;48.260;8.928;2022-11-03T01:08:01;52547.38;;;-145.69;100.00
1726;BME280;41776;48.260;8.928;2022-11-03T01:10:29;52527.56;;;-145.69;100.00
1726;BME280;41776;48.260;8.928;2022-11-03T01:12:55;52531.53;;;-145.69;100.00
1726;BME280;41776;48.260;8.928;2022-11-03T01:15:22;52487.97;;;-145.69;100.00
1726;BME280;41776;48.260;8.928;2022-11-03T01:17:48;52511.72;;;-145.69;100.00
1726;BME280;41776;48.260;8.928;2022-11-03T01:20:15;52531.53;;;-145.69;100.00
1726;BME280;41776;48.260;8.928;2022-11-03T01:22:43;52499.84;;;-145.69;100.00
1726;BME280;41776;48.260;8.928;2022-11-03T01:25:13;52531.53;;;-145.69;100.00
1726;BME280;41776;48.260;8.928;2022-11-03T01:27:42;52503.81;;;-145.69;100.00
1726;BME280;41776;48.260;8.928;2022-11-03T01:30:09;52487.97;;;-145.69;100.00
1726;BME280;41776;48.260;8.928;2022-11-03T01:32:36;52503.81;;;-145.69;100.00
1726;BME280;41776;48.260;8.928;2022-11-03T01:35:06;52491.91;;;-145.69;100.00
1726;BME280;41776;48.260;8.928;2022-11-03T01:37:32;52507.75;;;-145.69;100.00
1726;BME280;41776;48.260;8.928;2022-11-03T01:39:59;52519.63;;;-145.69;100.00
1726;BME280;41776;48.260;8.928;2022-11-03T01:42:26;52491.91;;;-145.69;100.00
1726;BME280;41776;48.260;8.928;2022-11-03T01:44:53;52507.75;;;-145.69;100.00
1726;BME280;41776;48.260;8.928;2022-11-03T01:47:26;52517.66;;;-145.69;100.00
1726;BME280;41776;48.260;8.928;2022-11-03T01:49:58;52509.75;;;-145.69;100.00
1726;BME280;41776;48.260;8.928;2022-11-03T01:52:29;52527.56;;;-145.69;100.00
1726;BME280;41776;48.260;8.928;2022-11-03T01:55:03;52511.72;;;-145.69;100.00
1726;BME280;41776;48.260;8.928;2022-11-03T01:57:37;52525.59;;;-145.69;100.00
1726;BME280;41776;48.260;8.928;2022-11-03T02:00:07;52555.28;;;-145.69;100.00
1726;BME280;41776;48.260;8.928;2022-11-03T02:02:34;52521.63;;;-145.69;100.00
1726;BME280;41776;48.260;8.928;2022-11-03T02:05:04;52551.31;;;-145.69;100.00
1726;BME280;41776;48.260;8.928;2022-11-03T02:07:34;52523.59;;;-145.69;100.00
1726;BME280;41776;48.260;8.928;2022-11-03T02:10:06;52507.75;;;-145.69;100.00
1726;BME280;41776;48.260;8.928;2022-11-03T02:12:34;52543.41;;;-145.69;100.00
1726;BME280;41776;48.260;8.928;2022-11-03T02:15:05;52505.78;;;-145.69;100.00
1726;BME280;41776;48.260;8.928;2022-11-03T02:17:35;52531.53;;;-145.69;100.00
1726;BME280;41776;48.260;8.928;2022-11-03T02:20:05;52543.41;;;-145.69;100.00
1726;BME280;41776;48.260;8.928;2022-11-03T02:23:03;52511.72;;;-145.69;100.00
1726;BME280;41776;48.260;8.928;2022-11-03T02:25:39;52531.53;;;-145.69;100.00
1726;BME280;41776;48.260;8.928;2022-11-03T02:28:07;52495.88;;;-145.69;100.00
1726;BME280;41776;48.260;8.928;2022-11-03T02:30:37;52539.44;;;-145.69;100.00
1726;BME280;41776;48.260;8.928;2022-11-03T02:33:12;52537.47;;;-145.69;100.00
1726;BME280;41776;48.260;8.928;2022-11-03T02:35:44;52511.72;;;-145.69;100.00
1726;BME280;41776;48.260;8.928;2022-11-03T02:38:14;52557.28;;;-145.69;100.00
1726;BME280;41776;48.260;8.928;2022-11-03T02:40:47;52507.75;;;-145.69;100.00
1726;BME280;41776;48.260;8.928;2022-11-03T02:43:16;52509.75;;;-145.69;100.00
1726;BME280;41776;48.260;8.928;2022-11-03T02:45:46;52499.84;;;-145.69;100.00
1726;BME280;41776;48.260;8.928;2022-11-03T02:48:14;52515.69;;;-145.69;100.00
1726;BME280;41776;48.260;8.928;2022-11-03T02:50:43;52533.50;;;-145.69;100.00
1726;BME280;41776;48.260;8.928;2022-11-03T02:53:11;52539.44;;;-145.69;100.00
1726;BME280;41776;48.260;8.928;2022-11-03T02:55:40;52507.75;;;-145.69;100.00
1726;BME280;41776;48.260;8.928;2022-11-03T02:58:17;52541.44;;;-145.69;100.00
1726;BME280;41776;48.260;8.928;2022-11-03T03:00:48;52507.75;;;-145.69;100.00
1726;BME280;41776;48.260;8.928;2022-11-03T03:03:21;52547.38;;;-145.69;100.00
1726;BME280;41776;48.260;8.928;2022-11-03T03:05:54;52527.56;;;-145.69;100.00
1726;BME280;41776;48.260;8.928;2022-11-03T03:08:25;52509.75;;;-145.69;100.00
1726;BME280;41776;48.260;8.928;2022-11-03T03:10:53;52519.63;;;-145.69;100.00
1726;BME280;41776;48.260;8.928;2022-11-03T03:13:22;52539.44;;;-145.69;100.00
1726;BME280;41776;48.260;8.928;2022-11-03T03:15:59;52509.75;;;-145.69;100.00
1726;BME280;41776;48.260;8.928;2022-11-03T03:18:39;52507.75;;;-145.69;100.00
1726;BME280;41776;48.260;8.928;2022-11-03T03:21:12;52507.75;;;-145.69;100.00
1726;BME280;41776;48.260;8.928;2022-11-03T03:23:44;52547.38;;;-145.69;100.00
1726;BME280;41776;48.260;8.928;2022-11-03T03:26:19;52543.41;;;-145.69;100.00
1726;BME280;41776;48.260;8.928;2022-11-03T03:28:50;52515.69;;;-145.69;100.00
1726;BME280;41776;48.260;8.928;2022-11-03T03:31:19;52507.75;;;-145.69;100.00
1726;BME280;41776;48.260;8.928;2022-11-03T03:33:48;52537.47;;;-145.69;100.00
1726;BME280;41776;48.260;8.928;2022-11-03T03:36:17;52519.63;;;-145.69;100.00
1726;BME280;41776;48.260;8.928;2022-11-03T03:38:47;52541.44;;;-145.69;100.00
1726;BME280;41776;48.260;8.928;2022-11-03T03:41:16;52521.63;;;-145.69;100.00
1726;BME280;41776;48.260;8.928;2022-11-03T03:43:49;52541.44;;;-145.69;100.00
1726;BME280;41776;48.260;8.928;2022-11-03T03:46:19;52499.84;;;-145.69;100.00
1726;BME280;41776;48.260;8.928;2022-11-03T03:48:47;52501.81;;;-145.69;100.00
1726;BME280;41776;48.260;8.928;2022-11-03T03:51:15;52539.44;;;-145.69;100.00
1726;BME280;41776;48.260;8.928;2022-11-03T03:53:52;52549.34;;;-145.69;100.00
1726;BME280;41776;48.260;8.928;2022-11-03T03:56:22;52505.78;;;-145.69;100.00
1726;BME280;41776;48.260;8.928;2022-11-03T03:58:53;52529.53;;;-145.69;100.00
1726;BME280;41776;48.260;8.928;2022-11-03T04:01:20;52561.22;;;-145.69;100.00
1726;BME280;41776;48.260;8.928;2022-11-03T04:03:46;52553.31;;;-145.69;100.00
1726;BME280;41776;48.260;8.928;2022-11-03T04:06:13;52537.47;;;-145.69;100.00
1726;BME280;41776;48.260;8.928;2022-11-03T04:08:41;52527.56;;;-145.69;100.00
1726;BME280;41776;48.260;8.928;2022-11-03T04:11:08;52537.47;;;-145.69;100.00
1726;BME280;41776;48.260;8.928;2022-11-03T04:13:53;52529.53;;;-145.69;100.00
1726;BME280;41776;48.260;8.928;2022-11-03T04:16:37;52515.69;;;-145.69;100.00
1726;BME280;41776;48.260;8.928;2022-11-03T04:19:21;52565.19;;;-145.69;100.00
1726;BME280;41776;48.260;8.928;2022-11-03T04:22:11;52527.56;;;-145.69;100.00
1726;BME280;41776;48.260;8.928;2022-11-03T04:24:46;52565.19;;;-145.69;100.00
1726;BME280;41776;48.260;8.928;2022-11-03T04:27:29;52555.28;;;-145.69;100.00
1726;BME280;41776;48.260;8.928;2022-11-03T04:29:59;52509.75;;;-145.69;100.00
1726;BME280;41776;48.260;8.928;2022-11-03T04:32:27;52513.69;;;-145.69;100.00
1726;BME280;41776;48.260;8.928;2022-11-03T04:34:54;52547.38;;;-145.69;100.00
1726;BME280;41776;48.260;8.928;2022-11-03T04:37:20;52547.38;;;-145.69;100.00
1726;BME280;41776;48.260;8.928;2022-11-03T04:39:47;52521.63;;;-145.69;100.00
1726;BME280;41776;48.260;8.928;2022-11-03T04:42:17;52545.38;;;-145.69;100.00
1726;BME280;41776;48.260;8.928;2022-11-03T04:44:44;52539.44;;;-145.69;100.00
1726;BME280;41776;48.260;8.928;2022-11-03T04:47:14;52527.56;;;-145.69;100.00
1726;BME280;41776;48.260;8.928;2022-11-03T04:49:44;52533.50;;;-145.69;100.00
1726;BME280;41776;48.260;8.928;2022-11-03T04:52:17;52535.47;;;-145.69;100.00
1726;BME280;41776;48.260;8.928;2022-11-03T04:54:46;52535.47;;;-145.69;100.00
1726;BME280;41776;48.260;8.928;2022-11-03T04:57:15;52553.31;;;-145.69;100.00
1726;BME280;41776;48.260;8.928;2022-11-03T04:59:46;52577.06;;;-145.69;100.00
1726;BME280;41776;48.260;8.928;2022-11-03T05:02:17;52563.22;;;-145.69;100.00
1726;BME280;41776;48.260;8.928;2022-11-03T05:04:44;52537.47;;;-145.69;100.00
1726;BME280;41776;48.260;8.928;2022-11-03T05:07:21;52525.59;;;-145.69;100.00
1726;BME280;41776;48.260;8.928;2022-11-03T05:09:50;52551.31;;;-145.69;100.00
1726;BME280;41776;48.260;8.928;2022-11-03T05:12:17;52563.22;;;-145.69;100.00
1726;BME280;41776;48.260;8.928;2022-11-03T05:14:44;52569.16;;;-145.69;100.00
1726;BME280;41776;48.260;8.928;2022-11-03T05:17:20;52523.59;;;-145.69;100.00
1726;BME280;41776;48.260;8.928;2022-11-03T05:19:49;52527.56;;;-145.69;100.00
1726;BME280;41776;48.260;8.928;2022-11-03T05:22:17;52511.72;;;-145.69;100.00
1726;BME280;41776;48.260;8.928;2022-11-03T05:24:49;52521.63;;;-145.69;100.00
1726;BME280;41776;48.260;8.928;2022-11-03T05:27:19;52537.47;;;-145.69;100.00
1726;BME280;41776;48.260;8.928;2022-11-03T05:29:48;52555.28;;;-145.69;100.00
1726;BME280;41776;48.260;8.928;2022-11-03T05:32:21;52555.28;;;-145.69;100.00
1726;BME280;41776;48.260;8.928;2022-11-03T05:34:51;52583.00;;;-145.69;100.00
1726;BME280;41776;48.260;8.928;2022-11-03T05:37:23;52537.47;;;-145.69;100.00
1726;BME280;41776;48.260;8.928;2022-11-03T05:39:55;52567.16;;;-145.69;100.00
1726;BME280;41776;48.260;8.928;2022-11-03T05:42:31;52521.63;;;-145.69;100.00
1726;BME280;41776;48.260;8.928;2022-11-03T05:45:01;52501.81;;;-145.69;100.00
1726;BME280;41776;48.260;8.928;2022-11-03T05:47:35;52523.59;;;-145.69;100.00
1726;BME280;41776;48.260;8.928;2022-11-03T05:50:13;52545.38;;;-145.69;100.00
1726;BME280;41776;48.260;8.928;2022-11-03T05:52:42;52523.59;;;-145.69;100.00
1726;BME280;41776;48.260;8.928;2022-11-03T05:55:29;52523.59;;;-145.69;100.00
1726;BME280;41776;48.260;8.928;2022-11-03T05:57:58;52531.53;;;-145.69;100.00
1726;BME280;41776;48.260;8.928;2022-11-03T06:00:29;52579.06;;;-145.69;100.00
1726;BME280;41776;48.260;8.928;2022-11-03T06:02:58;52521.63;;;-145.69;100.00
1726;BME280;41776;48.260;8.928;2022-11-03T06:05:26;52527.56;;;-145.69;100.00
1726;BME280;41776;48.260;8.928;2022-11-03T06:07:55;52523.59;;;-145.69;100.00
1726;BME280;41776;48.260;8.928;2022-11-03T06:10:25;52539.44;;;-145.69;100.00
1726;BME280;41776;48.260;8.928;2022-11-03T06:12:54;52533.50;;;-145.69;100.00
1726;BME280;41776;48.260;8.928;2022-11-03T06:15:28;52535.47;;;-145.69;100.00
1726;BME280;41776;48.260;8.928;2022-11-03T06:17:56;52541.44;;;-145.69;100.00
1726;BME280;41776;48.260;8.928;2022-11-03T06:20:27;52531.53;;;-145.69;100.00
1726;BME280;41776;48.260;8.928;2022-11-03T06:22:55;52539.44;;;-145.69;100.00
1726;BME280;41776;48.260;8.928;2022-11-03T06:25:26;52499.84;;;-145.69;100.00
1726;BME280;41776;48.260;8.928;2022-11-03T06:27:55;52527.56;;;-145.69;100.00
1726;BME280;41776;48.260;8.928;2022-11-03T06:30:26;52511.72;;;-145.69;100.00
1726;BME280;41776;48.260;8.928;2022-11-03T06:32:57;52511.72;;;-145.69;100.00
1726;BME280;41776;48.260;8.928;2022-11-03T06:35:27;52539.44;;;-145.69;100.00
1726;BME280;41776;48.260;8.928;2022-11-03T06:37:55;52537.47;;;-145.69;100.00
1726;BME280;41776;48.260;8.928;2022-11-03T06:40:32;52523.59;;;-145.69;100.00
1726;BME280;41776;48.260;8.928;2022-11-03T06:43:15;52557.28;;;-145.69;100.00
1726;BME280;41776;48.260;8.928;2022-11-03T06:45:48;52523.59;;;-145.69;100.00
1726;BME280;41776;48.260;8.928;2022-11-03T06:48:21;52505.78;;;-145.69;100.00
1726;BME280;41776;48.260;8.928;2022-11-03T06:50:50;52547.38;;;-145.69;100.00
1726;BME280;41776;48.260;8.928;2022-11-03T06:53:25;52555.28;;;-145.69;100.00
1726;BME280;41776;48.260;8.928;2022-11-03T06:55:53;52557.28;;;-145.69;100.00
1726;BME280;41776;48.260;8.928;2022-11-03T06:58:24;52507.75;;;-145.69;100.00
1726;BME280;41776;48.260;8.928;2022-11-03T07:00:54;52535.47;;;-145.69;100.00
1726;BME280;41776;48.260;8.928;2022-11-03T07:03:25;52539.44;;;-145.69;100.00
1726;BME280;41776;48.260;8.928;2022-11-03T07:05:59;52517.66;;;-145.69;100.00
1726;BME280;41776;48.260;8.928;2022-11-03T07:08:29;52503.81;;;-145.69;100.00
1726;BME280;41776;48.260;8.928;2022-11-03T07:11:00;52507.75;;;-145.69;100.00
1726;BME280;41776;48.260;8.928;2022-11-03T07:13:29;52503.81;;;-145.69;100.00
1726;BME280;41776;48.260;8.928;2022-11-03T07:15:57;52491.91;;;-145.69;100.00
1726;BME280;41776;48.260;8.928;2022-11-03T07:18:26;52484.00;;;-145.69;100.00
1726;BME280;41776;48.260;8.928;2022-11-03T07:20:53;52507.75;;;-145.69;100.00
1726;BME280;41776;48.260;8.928;2022-11-03T07:23:24;52515.69;;;-145.69;100.00
1726;BME280;41776;48.260;8.928;2022-11-03T07:25:54;52543.41;;;-145.69;100.00
1726;BME280;41776;48.260;8.928;2022-11-03T07:28:23;52515.69;;;-145.69;100.00
1726;BME280;41776;48.260;8.928;2022-11-03T07:30:51;52515.69;;;-145.69;100.00
1726;BME280;41776;48.260;8.928;2022-11-03T07:33:20;52511.72;;;-145.69;100.00
1726;BME280;41776;48.260;8.928;2022-11-03T07:35:47;52499.84;;;-145.69;100.00
1726;BME280;41776;48.260;8.928;2022-11-03T07:38:17;52472.13;;;-145.69;100.00
1726;BME280;41776;48.260;8.928;2022-11-03T07:40:47;52478.06;;;-145.69;100.00
1726;BME280;41776;48.260;8.928;2022-11-03T07:43:16;52491.91;;;-145.69;100.00
1726;BME280;41776;48.260;8.928;2022-11-03T07:45:48;52472.13;;;-145.69;100.00
1726;BME280;41776;48.260;8.928;2022-11-03T07:48:20;52497.84;;;-145.69;100.00
1726;BME280;41776;48.260;8.928;2022-11-03T07:50:49;52503.81;;;-145.69;100.00
1726;BME280;41776;48.260;8.928;2022-11-03T07:53:20;52503.81;;;-145.69;100.00
1726;BME280;41776;48.260;8.928;2022-11-03T07:55:52;52493.91;;;-145.69;100.00
1726;BME280;41776;48.260;8.928;2022-11-03T07:58:21;52497.84;;;-145.69;100.00
1726;BME280;41776;48.260;8.928;2022-11-03T08:00:51;52495.88;;;-145.69;100.00
1726;BME280;41776;48.260;8.928;2022-11-03T08:03:26;52462.22;;;-145.69;100.00
1726;BME280;41776;48.260;8.928;2022-11-03T08:05:53;52464.19;;;-145.69;100.00
1726;BME280;41776;48.260;8.928;2022-11-03T08:08:20;52468.16;;;-145.69;100.00
1726;BME280;41776;48.260;8.928;2022-11-03T08:10:46;52503.81;;;-145.69;100.00
1726;BME280;41776;48.260;8.928;2022-11-03T08:13:14;52491.91;;;-145.69;100.00
1726;BME280;41776;48.260;8.928;2022-11-03T08:15:41;52450.31;;;-145.69;100.00
1726;BME280;41776;48.260;8.928;2022-11-03T08:18:07;52466.16;;;-145.69;100.00
1726;BME280;41776;48.260;8.928;2022-11-03T08:20:34;52448.34;;;-145.69;100.00
1726;BME280;41776;48.260;8.928;2022-11-03T08:23:00;52476.06;;;-145.69;100.00
1726;BME280;41776;48.260;8.928;2022-11-03T08:25:27;52422.59;;;-145.69;100.00
1726;BME280;41776;48.260;8.928;2022-11-03T08:27:53;52440.44;;;-145.69;100.00
1726;BME280;41776;48.260;8.928;2022-11-03T08:30:21;52470.13;;;-145.69;100.00
1726;BME280;41776;48.260;8.928;2022-11-03T08:32:48;52456.28;;;-145.69;100.00
1726;BME280;41776;48.260;8.928;2022-11-03T08:35:14;52408.75;;;-145.69;100.00
1726;BME280;41776;48.260;8.928;2022-11-03T08:37:41;52448.34;;;-145.69;100.00
1726;BME280;41776;48.260;8.928;2022-11-03T08:40:08;52442.41;;;-145.69;100.00
1726;BME280;41776;48.260;8.928;2022-11-03T08:42:36;52438.44;;;-145.69;100.00
1726;BME280;41776;48.260;8.928;2022-11-03T08:45:04;52422.59;;;-145.69;100.00
1726;BME280;41776;48.260;8.928;2022-11-03T08:47:32;52476.06;;;-145.69;100.00
1726;BME280;41776;48.260;8.928;2022-11-03T08:49:58;52448.34;;;-145.69;100.00
1726;BME280;41776;48.260;8.928;2022-11-03T08:52:25;52446.38;;;-145.69;100.00
1726;BME280;41776;48.260;8.928;2022-11-03T08:54:52;52418.63;;;-145.69;100.00
1726;BME280;41776;48.260;8.928;2022-11-03T08:57:18;52444.38;;;-145.69;100.00
1726;BME280;41776;48.260;8.928;2022-11-03T08:59:45;52420.63;;;-145.69;100.00
1726;BME280;41776;48.260;8.928;2022-11-03T09:02:11;52404.78;;;-145.69;100.00
1726;BME280;41776;48.260;8.928;2022-11-03T09:04:39;52406.75;;;-145.69;100.00
1726;BME280;41776;48.260;8.928;2022-11-03T09:07:06;52406.75;;;-145.69;100.00
1726;BME280;41776;48.260;8.928;2022-11-03T09:09:32;52375.06;;;-145.69;90.86
1726;BME280;41776;48.260;8.928;2022-11-03T09:11:59;52444.38;;;-145.69;96.45
1726;BME280;41776;48.260;8.928;2022-11-03T09:14:25;52424.59;;;-145.69;93.49
1726;BME280;41776;48.260;8.928;2022-11-03T09:16:52;52390.91;;;-145.69;100.00
1726;BME280;41776;48.260;8.928;2022-11-03T09:19:19;52402.78;;;-145.69;98.93
1726;BME280;41776;48.260;8.928;2022-11-03T09:21:47;52383.00;;;-145.69;87.83
1726;BME280;41776;48.260;8.928;2022-11-03T09:24:13;52381.00;;;-145.69;92.83
1726;BME280;41776;48.260;8.928;2022-11-03T09:26:40;52381.00;;;-145.69;96.45
1726;BME280;41776;48.260;8.928;2022-11-03T09:29:06;52388.94;;;-145.69;92.40
1726;BME280;41776;48.260;8.928;2022-11-03T09:31:33;52390.91;;;-145.69;92.80
1726;BME280;41776;48.260;8.928;2022-11-03T09:33:59;52355.28;;;-145.69;94.92
1726;BME280;41776;48.260;8.928;2022-11-03T09:36:26;52373.09;;;-145.69;92.33
1726;BME280;41776;48.260;8.928;2022-11-03T09:38:54;52383.00;;;-145.69;94.62
1726;BME280;41776;48.260;8.928;2022-11-03T09:41:20;52420.63;;;-145.69;94.56
1726;BME280;41776;48.260;8.928;2022-11-03T09:43:47;52408.75;;;-145.69;95.15
1726;BME280;41776;48.260;8.928;2022-11-03T09:46:15;52402.78;;;-145.69;94.71
1726;BME280;41776;48.260;8.928;2022-11-03T09:48:42;52373.09;;;-145.69;93.44
1726;BME280;41776;48.260;8.928;2022-11-03T09:51:10;52404.78;;;-145.69;91.16
1726;BME280;41776;48.260;8.928;2022-11-03T09:53:39;52392.91;;;-145.69;92.52
1726;BME280;41776;48.260;8.928;2022-11-03T09:56:08;52390.91;;;-145.69;95.28
1726;BME280;41776;48.260;8.928;2022-11-03T09:58:35;52367.16;;;-145.69;92.40
1726;BME280;41776;48.260;8.928;2022-11-03T10:01:03;52351.31;;;-145.69;89.59
1726;BME280;41776;48.260;8.928;2022-11-03T10:03:30;52351.31;;;-145.69;90.75
1726;BME280;41776;48.260;8.928;2022-11-03T10:05:57;52408.75;;;-145.69;91.14
1726;BME280;41776;48.260;8.928;2022-11-03T10:08:26;52345.38;;;-145.69;86.97
1726;BME280;41776;48.260;8.928;2022-11-03T10:10:53;52331.50;;;-145.69;87.78
1726;BME280;41776;48.260;8.928;2022-11-03T10:13:27;52363.19;;;-145.69;85.25
1726;BME280;41776;48.260;8.928;2022-11-03T10:15:54;52373.09;;;-145.69;81.39
1726;BME280;41776;48.260;8.928;2022-11-03T10:18:22;52377.06;;;-145.69;81.03
1726;BME280;41776;48.260;8.928;2022-11-03T10:20:49;52369.13;;;-145.69;84.76
1726;BME280;41776;48.260;8.928;2022-11-03T10:23:16;52384.97;;;-145.69;69.67
1726;BME280;41776;48.260;8.928;2022-11-03T10:25:43;52349.31;;;-145.69;76.08
1726;BME280;41776;48.260;8.928;2022-11-03T10:28:13;52365.16;;;-145.69;68.87
1726;BME280;41776;48.260;8.928;2022-11-03T10:30:53;52349.31;;;-145.69;60.82
1726;BME280;41776;48.260;8.928;2022-11-03T10:33:27;52323.59;;;-145.69;67.85
1726;BME280;41776;48.260;8.928;2022-11-03T10:35:55;52357.25;;;-145.69;59.07
1726;BME280;41776;48.260;8.928;2022-11-03T10:38:27;52351.31;;;-145.69;56.97
1726;BME280;41776;48.260;8.928;2022-11-03T10:40:55;52325.56;;;-145.69;65.66
1726;BME280;41776;48.260;8.928;2022-11-03T10:43:22;52293.88;;;-145.69;58.96
1726;BME280;41776;48.260;8.928;2022-11-03T10:45:48;52337.44;;;-145.69;54.64
1726;BME280;41776;48.260;8.928;2022-11-03T10:48:21;52305.75;;;-145.69;58.09
1726;BME280;41776;48.260;8.928;2022-11-03T10:50:50;52345.38;;;-145.69;55.06
1726;BME280;41776;48.260;8.928;2022-11-03T10:53:19;52313.69;;;-145.69;56.81
1726;BME280;41776;48.260;8.928;2022-11-03T10:55:46;52309.72;;;-145.69;59.99
1726;BME280;41776;48.260;8.928;2022-11-03T10:58:13;52303.78;;;-145.69;57.02
1726;BME280;41776;48.260;8.928;2022-11-03T11:00:40;52337.44;;;-145.69;57.88
1726;BME280;41776;48.260;8.928;2022-11-03T11:03:07;52321.59;;;-145.69;57.88
1726;BME280;41776;48.260;8.928;2022-11-03T11:05:35;52311.69;;;-145.69;54.58
1726;BME280;41776;48.260;8.928;2022-11-03T11:08:09;52317.66;;;-145.69;55.77
1726;BME280;41776;48.260;8.928;2022-11-03T11:10:35;52309.72;;;-145.69;54.13
1726;BME280;41776;48.260;8.928;2022-11-03T11:13:04;52329.53;;;-145.69;54.66
1726;BME280;41776;48.260;8.928;2022-11-03T11:15:35;52333.47;;;-145.69;63.50
1726;BME280;41776;48.260;8.928;2022-11-03T11:18:02;52347.34;;;-145.69;54.13
1726;BME280;41776;48.260;8.928;2022-11-03T11:20:32;52307.75;;;-145.69;55.68
1726;BME280;41776;48.260;8.928;2022-11-03T11:26:32;52313.69;;;-145.69;58.68
1726;BME280;41776;48.260;8.928;2022-11-03T11:35:21;52313.69;;;-145.69;62.22
1726;BME280;41776;48.260;8.928;2022-11-03T11:41:08;52317.66;;;-145.69;62.39
1726;BME280;41776;48.260;8.928;2022-11-03T11:43:36;52301.81;;;-145.69;61.79
1726;BME280;41776;48.260;8.928;2022-11-03T11:46:32;52357.25;;;-145.69;61.62
1726;BME280;41776;48.260;8.928;2022-11-03T11:49:16;52325.56;;;-145.69;61.04
1726;BME280;41776;48.260;8.928;2022-11-03T11:51:43;52325.56;;;-145.69;59.47
1726;BME280;41776;48.260;8.928;2022-11-03T11:54:13;52297.84;;;-145.69;64.15
1726;BME280;41776;48.260;8.928;2022-11-03T11:56:42;52349.31;;;-145.69;64.53
1726;BME280;41776;48.260;8.928;2022-11-03T11:59:16;52333.47;;;-145.69;59.49
1726;BME280;41776;48.260;8.928;2022-11-03T12:01:47;52309.72;;;-145.69;60.56
1726;BME280;41776;48.260;8.928;2022-11-03T12:04:18;52341.41;;;-145.69;60.25
1726;BME280;41776;48.260;8.928;2022-11-03T12:06:46;52329.53;;;-145.69;67.54
1726;BME280;41776;48.260;8.928;2022-11-03T12:09:17;52353.28;;;-145.69;65.33
1726;BME280;41776;48.260;8.928;2022-11-03T12:11:45;52337.44;;;-145.69;63.60
1726;BME280;41776;48.260;8.928;2022-11-03T12:14:24;52301.81;;;-145.69;62.30
1726;BME280;41776;48.260;8.928;2022-11-03T12:16:51;52367.16;;;-145.69;63.67
1726;BME280;41776;48.260;8.928;2022-11-03T12:19:39;52333.47;;;-145.69;63.00
1726;BME280;41776;48.260;8.928;2022-11-03T12:22:08;52303.78;;;-145.69;62.23
1726;BME280;41776;48.260;8.928;2022-11-03T12:24:49;52319.63;;;-145.69;66.49
1726;BME280;41776;48.260;8.928;2022-11-03T12:30:19;52337.44;;;-145.69;63.28
1726;BME280;41776;48.260;8.928;2022-11-03T12:32:46;52347.34;;;-145.69;65.43
1726;BME280;41776;48.260;8.928;2022-11-03T12:35:13;52325.56;;;-145.69;66.94
1726;BME280;41776;48.260;8.928;2022-11-03T12:37:40;52325.56;;;-145.69;64.68
1726;BME280;41776;48.260;8.928;2022-11-03T12:40:08;52349.31;;;-145.69;69.24
1726;BME280;41776;48.260;8.928;2022-11-03T12:42:36;52367.16;;;-145.69;67.70
1726;BME280;41776;48.260;8.928;2022-11-03T12:45:03;52337.44;;;-145.69;66.64
1726;BME280;41776;48.260;8.928;2022-11-03T12:47:31;52337.44;;;-145.69;71.15
1726;BME280;41776;48.260;8.928;2022-11-03T12:49:58;52365.16;;;-145.69;72.78
1726;BME280;41776;48.260;8.928;2022-11-03T12:52:24;52353.28;;;-145.69;76.63
1726;BME280;41776;48.260;8.928;2022-11-03T12:54:51;52305.75;;;-145.69;73.68
1726;BME280;41776;48.260;8.928;2022-11-03T12:57:17;52319.63;;;-145.69;77.92
1726;BME280;41776;48.260;8.928;2022-11-03T12:59:44;52339.44;;;-145.69;74.65
1726;BME280;41776;48.260;8.928;2022-11-03T13:02:10;52333.47;;;-145.69;76.13
1726;BME280;41776;48.260;8.928;2022-11-03T13:04:38;52353.28;;;-145.69;77.25
1726;BME280;41776;48.260;8.928;2022-11-03T13:07:05;52361.22;;;-145.69;72.93
1726;BME280;41776;48.260;8.928;2022-11-03T13:09:32;52335.47;;;-145.69;76.08
1726;BME280;41776;48.260;8.928;2022-11-03T13:12:00;52341.41;;;-145.69;76.95